createdAt,value
2023-04-22T00:00:17.983Z,12.35
2023-04-22T00:02:45.924Z,10.82
2023-04-22T00:05:15.194Z,11.80
2023-04-22T00:07:44.359Z,11.27
2023-04-22T00:10:12.175Z,12.07
2023-04-22T00:12:39.301Z,15.38
2023-04-22T00:15:07.040Z,9.88
2023-04-22T00:17:34.211Z,10.77
2023-04-22T00:20:01.628Z,13.40
2023-04-22T00:22:28.933Z,10.60
2023-04-22T00:24:56.204Z,12.18
2023-04-22T00:27:23.279Z,11.40
2023-04-22T00:29:50.549Z,11.52
2023-04-22T00:32:17.845Z,13.55
2023-04-22T00:34:44.864Z,9.85
2023-04-22T00:37:12.178Z,15.15
2023-04-22T00:39:40.077Z,14.65
2023-04-22T00:42:08.046Z,10.95
2023-04-22T00:44:36.909Z,12.20
2023-04-22T00:47:04.561Z,11.05
2023-04-22T00:49:31.841Z,12.38
2023-04-22T00:51:58.852Z,14.15
2023-04-22T00:54:26.532Z,14.43
2023-04-22T00:56:53.621Z,16.98
2023-04-22T00:59:21.697Z,14.27
2023-04-22T01:01:48.981Z,20.30
2023-04-22T01:04:16.307Z,16.00
2023-04-22T01:06:44.668Z,14.02
2023-04-22T01:09:12.044Z,17.02
2023-04-22T01:11:39.299Z,14.50
2023-04-22T01:14:06.590Z,13.88
2023-04-22T01:16:35.800Z,14.65
2023-04-22T01:19:03.164Z,10.50
2023-04-22T01:21:33.653Z,13.50
2023-04-22T01:24:02.191Z,15.10
2023-04-22T01:26:29.556Z,12.55
2023-04-22T01:28:56.814Z,12.95
2023-04-22T01:31:24.322Z,12.75
2023-04-22T01:33:51.853Z,13.52
2023-04-22T01:36:19.055Z,13.23
2023-04-22T01:38:46.241Z,12.52
2023-04-22T01:41:14.477Z,16.35
2023-04-22T01:43:44.294Z,11.63
2023-04-22T01:46:11.676Z,12.90
2023-04-22T01:48:40.289Z,9.45
2023-04-22T01:51:07.464Z,8.45
2023-04-22T01:53:35.757Z,9.10
2023-04-22T01:56:03.148Z,15.85
2023-04-22T01:58:30.955Z,11.38
2023-04-22T02:00:58.252Z,10.98
2023-04-22T02:03:25.636Z,12.45
2023-04-22T02:05:54.056Z,14.60
2023-04-22T02:08:21.135Z,10.77
2023-04-22T02:10:48.212Z,10.52
2023-04-22T02:13:15.674Z,10.70
2023-04-22T02:15:42.946Z,9.75
2023-04-22T02:18:11.211Z,9.95
2023-04-22T02:20:38.342Z,9.98
2023-04-22T02:23:06.641Z,13.35
2023-04-22T02:25:33.736Z,12.75
2023-04-22T02:28:00.971Z,10.93
2023-04-22T02:30:28.286Z,12.88
2023-04-22T02:32:56.217Z,18.55
2023-04-22T02:35:23.566Z,17.00
2023-04-22T02:37:51.435Z,16.67
2023-04-22T02:40:18.958Z,14.18
2023-04-22T02:42:46.139Z,13.38
2023-04-22T02:45:13.191Z,10.05
2023-04-22T02:47:40.526Z,13.73
2023-04-22T02:50:08.374Z,12.05
2023-04-22T02:52:35.616Z,14.93
2023-04-22T02:55:02.681Z,20.85
2023-04-22T02:57:30.039Z,21.17
2023-04-22T02:59:57.285Z,16.52
2023-04-22T03:02:25.145Z,11.18
2023-04-22T03:05:04.744Z,9.98
2023-04-22T03:07:31.932Z,9.45
2023-04-22T03:09:59.869Z,10.90
2023-04-22T03:12:26.979Z,13.02
2023-04-22T03:14:54.419Z,12.35
2023-04-22T03:17:23.382Z,12.50
2023-04-22T03:19:50.506Z,14.68
2023-04-22T03:22:17.678Z,16.42
2023-04-22T03:24:45.451Z,13.57
2023-04-22T03:27:12.619Z,15.57
2023-04-22T03:29:40.133Z,11.45
2023-04-22T03:32:08.005Z,11.00
2023-04-22T03:34:37.426Z,12.98
2023-04-22T03:37:07.133Z,13.95
2023-04-22T03:39:34.320Z,11.68
2023-04-22T03:42:01.957Z,11.73
2023-04-22T03:44:29.839Z,12.65
2023-04-22T03:46:56.932Z,12.18
2023-04-22T03:49:28.700Z,13.15
2023-04-22T03:51:56.654Z,13.45
2023-04-22T03:54:26.659Z,14.48
2023-04-22T03:56:53.754Z,11.90
2023-04-22T03:59:22.917Z,10.98
2023-04-22T04:01:52.050Z,14.82
2023-04-22T04:04:23.477Z,10.23
2023-04-22T04:06:56.548Z,10.57
2023-04-22T04:09:23.663Z,10.10
2023-04-22T04:11:51.770Z,11.73
2023-04-22T04:14:18.910Z,12.80
2023-04-22T04:16:47.853Z,11.48
2023-04-22T04:19:33.139Z,11.90
2023-04-22T04:22:01.957Z,14.30
2023-04-22T04:24:32.893Z,11.75
2023-04-22T04:27:06.505Z,14.15
2023-04-22T04:29:42.273Z,14.18
2023-04-22T04:32:14.815Z,12.80
2023-04-22T04:34:42.668Z,16.35
2023-04-22T04:37:10.395Z,14.13
2023-04-22T04:39:50.115Z,12.18
2023-04-22T04:42:20.669Z,11.15
2023-04-22T04:44:54.691Z,13.75
2023-04-22T04:47:22.727Z,12.80
2023-04-22T04:49:54.500Z,12.23
2023-04-22T04:52:22.072Z,11.15
2023-04-22T04:54:49.277Z,14.00
2023-04-22T04:57:16.538Z,13.20
2023-04-22T04:59:43.793Z,13.10
2023-04-22T05:02:11.271Z,10.80
2023-04-22T05:04:38.742Z,13.88
2023-04-22T05:07:06.103Z,12.57
2023-04-22T05:09:37.781Z,12.52
2023-04-22T05:12:05.600Z,13.82
2023-04-22T05:14:32.819Z,14.43
2023-04-22T05:17:00.164Z,13.30
2023-04-22T05:19:28.704Z,14.18
2023-04-22T05:21:57.063Z,14.60
2023-04-22T05:24:24.682Z,11.90
2023-04-22T05:26:51.937Z,11.45
2023-04-22T05:29:20.089Z,11.00
2023-04-22T05:31:47.772Z,14.43
2023-04-22T05:34:15.163Z,13.07
2023-04-22T05:36:43.203Z,14.48
2023-04-22T05:39:12.324Z,16.20
2023-04-22T05:41:40.647Z,13.65
2023-04-22T05:44:11.120Z,11.48
2023-04-22T05:46:39.218Z,11.32
2023-04-22T05:49:06.459Z,10.52
2023-04-22T05:51:53.476Z,10.88
2023-04-22T05:54:27.225Z,11.80
2023-04-22T05:56:54.537Z,12.93
2023-04-22T05:59:22.025Z,11.88
2023-04-22T06:01:50.135Z,12.73
2023-04-22T06:04:20.208Z,10.13
2023-04-22T06:06:48.184Z,9.52
2023-04-22T06:09:15.324Z,7.25
2023-04-22T06:11:42.544Z,7.85
2023-04-22T06:14:09.741Z,8.95
2023-04-22T06:16:37.144Z,7.20
2023-04-22T06:19:08.436Z,7.75
2023-04-22T06:21:38.257Z,7.13
2023-04-22T06:24:06.154Z,6.60
2023-04-22T06:26:33.330Z,9.88
2023-04-22T06:29:02.953Z,9.38
2023-04-22T06:31:30.264Z,7.95
2023-04-22T06:33:57.494Z,8.95
2023-04-22T06:36:25.445Z,7.70
2023-04-22T06:38:59.327Z,9.98
2023-04-22T06:41:40.100Z,8.23
2023-04-22T06:44:21.020Z,9.85
2023-04-22T06:47:01.781Z,7.10
2023-04-22T06:49:49.248Z,8.05
2023-04-22T06:52:24.327Z,10.55
2023-04-22T06:54:54.571Z,10.13
2023-04-22T06:57:21.723Z,11.35
2023-04-22T06:59:48.822Z,10.60
2023-04-22T07:02:16.757Z,10.07
2023-04-22T07:04:44.687Z,17.65
2023-04-22T07:07:12.379Z,9.75
2023-04-22T07:09:40.971Z,9.68
2023-04-22T07:12:08.553Z,7.28
2023-04-22T07:14:35.698Z,9.52
2023-04-22T07:17:02.892Z,7.20
2023-04-22T07:19:30.652Z,6.57
2023-04-22T07:21:58.681Z,6.60
2023-04-22T07:24:26.254Z,6.80
2023-04-22T07:26:53.320Z,6.25
2023-04-22T07:29:20.518Z,6.22
2023-04-22T07:31:47.768Z,6.40
2023-04-22T07:34:15.122Z,5.68
2023-04-22T07:36:42.253Z,8.52
2023-04-22T07:39:09.908Z,6.88
2023-04-22T07:41:37.197Z,5.28
2023-04-22T07:44:04.361Z,7.63
2023-04-22T07:46:31.575Z,6.40
2023-04-22T07:48:58.850Z,6.75
2023-04-22T07:51:26.055Z,5.50
2023-04-22T07:53:53.214Z,5.82
2023-04-22T07:56:20.370Z,6.40
2023-04-22T07:58:47.576Z,6.03
2023-04-22T08:01:14.750Z,6.05
2023-04-22T08:03:42.205Z,6.80
2023-04-22T08:06:09.533Z,6.47
2023-04-22T08:08:36.742Z,6.82
2023-04-22T08:11:03.994Z,6.00
2023-04-22T08:13:31.156Z,6.57
2023-04-22T08:15:58.329Z,6.20
2023-04-22T08:18:25.659Z,7.32
2023-04-22T08:20:52.751Z,6.95
2023-04-22T08:23:21.477Z,6.85
2023-04-22T08:25:49.248Z,8.38
2023-04-22T08:28:16.248Z,6.35
2023-04-22T08:30:43.323Z,6.75
2023-04-22T08:33:11.274Z,6.72
2023-04-22T08:35:41.615Z,7.05
2023-04-22T08:38:08.712Z,6.80
2023-04-22T08:40:36.083Z,6.80
2023-04-22T08:43:03.324Z,7.05
2023-04-22T08:45:31.189Z,13.10
2023-04-22T08:47:58.565Z,8.75
2023-04-22T08:50:26.326Z,13.10
2023-04-22T08:52:53.417Z,7.50
2023-04-22T08:55:20.586Z,7.85
2023-04-22T08:57:48.196Z,10.32
2023-04-22T09:00:16.525Z,11.38
2023-04-22T09:02:46.016Z,8.27
2023-04-22T09:05:14.250Z,8.80
2023-04-22T09:07:41.567Z,9.90
2023-04-22T09:10:11.894Z,9.40
2023-04-22T09:12:41.260Z,9.10
2023-04-22T09:15:09.885Z,8.80
2023-04-22T09:17:38.457Z,8.35
2023-04-22T09:20:07.385Z,7.70
2023-04-22T09:22:45.478Z,9.43
2023-04-22T09:25:17.599Z,9.48
2023-04-22T09:27:52.586Z,8.70
2023-04-22T09:30:25.074Z,9.82
2023-04-22T09:32:54.348Z,9.88
2023-04-22T09:35:28.046Z,9.45
2023-04-22T09:37:55.744Z,12.52
2023-04-22T09:40:23.697Z,8.30
2023-04-22T09:42:52.553Z,10.38
2023-04-22T09:45:41.174Z,10.23
2023-04-22T09:48:10.916Z,9.65
2023-04-22T09:50:40.286Z,10.10
2023-04-22T09:53:09.784Z,10.88
2023-04-22T09:55:41.566Z,11.77
2023-04-22T09:58:12.096Z,15.50
2023-04-22T10:00:42.516Z,10.73
2023-04-22T10:03:10.861Z,11.50
2023-04-22T10:05:38.492Z,9.35
2023-04-22T10:08:06.945Z,12.18
2023-04-22T10:10:34.742Z,8.85
2023-04-22T10:13:04.339Z,12.57
2023-04-22T10:15:35.686Z,10.20
2023-04-22T10:18:07.725Z,9.35
2023-04-22T10:20:38.052Z,10.07
2023-04-22T10:23:06.626Z,11.77
2023-04-22T10:25:33.756Z,10.00
2023-04-22T10:28:06.924Z,9.48
2023-04-22T10:30:37.005Z,7.63
2023-04-22T10:33:24.242Z,10.20
2023-04-22T10:36:11.356Z,7.15
2023-04-22T10:38:40.551Z,10.48
2023-04-22T10:41:13.971Z,9.18
2023-04-22T10:43:42.206Z,8.73
2023-04-22T10:46:40.346Z,12.35
2023-04-22T10:49:12.876Z,8.88
2023-04-22T10:51:42.409Z,11.07
2023-04-22T10:54:31.844Z,8.27
2023-04-22T10:57:05.555Z,11.02
2023-04-22T10:59:34.747Z,9.27
2023-04-22T11:02:02.746Z,7.47
2023-04-22T11:04:30.294Z,12.88
2023-04-22T11:07:17.275Z,8.80
2023-04-22T11:09:46.367Z,7.57
2023-04-22T11:12:39.859Z,5.18
2023-04-22T11:15:07.438Z,9.10
2023-04-22T11:17:35.981Z,6.20
2023-04-22T11:20:05.468Z,8.30
2023-04-22T11:22:36.712Z,7.95
2023-04-22T11:25:05.642Z,9.52
2023-04-22T11:27:32.883Z,5.82
2023-04-22T11:30:00.982Z,8.93
2023-04-22T11:32:29.023Z,7.72
2023-04-22T11:34:56.800Z,7.85
2023-04-22T11:37:24.823Z,9.20
2023-04-22T11:40:16.905Z,8.23
2023-04-22T11:42:39.707Z,7.07
2023-04-22T11:45:08.144Z,9.48
2023-04-22T11:47:36.516Z,7.63
2023-04-22T11:50:07.219Z,7.55
2023-04-22T11:52:57.531Z,8.32
2023-04-22T11:55:30.394Z,9.30
2023-04-22T11:58:10.040Z,7.07
2023-04-22T12:00:40.823Z,6.68
2023-04-22T12:03:15.110Z,9.43
2023-04-22T12:05:47.430Z,9.68
2023-04-22T12:08:16.569Z,6.95
2023-04-22T12:10:46.402Z,8.27
2023-04-22T12:13:23.250Z,10.50
2023-04-22T12:15:54.627Z,9.48
2023-04-22T12:18:39.714Z,8.80
2023-04-22T12:21:07.990Z,6.30
2023-04-22T12:23:56.115Z,8.10
2023-04-22T12:26:26.597Z,11.27
2023-04-22T12:28:55.480Z,6.05
2023-04-22T12:31:22.626Z,8.10
2023-04-22T12:33:50.197Z,8.70
2023-04-22T12:36:21.032Z,8.98
2023-04-22T12:38:48.489Z,9.23
2023-04-22T12:41:17.234Z,9.57
2023-04-22T12:43:44.620Z,7.30
2023-04-22T12:46:11.945Z,9.20
2023-04-22T12:48:39.240Z,7.50
2023-04-22T12:51:07.204Z,7.63
2023-04-22T12:53:34.763Z,8.57
2023-04-22T12:56:01.915Z,9.23
2023-04-22T12:58:29.199Z,11.52
2023-04-22T13:00:56.469Z,6.50
2023-04-22T13:03:23.815Z,7.20
2023-04-22T13:05:52.301Z,7.20
2023-04-22T13:08:19.502Z,9.48
2023-04-22T13:10:46.673Z,9.95
2023-04-22T13:13:18.243Z,6.93
2023-04-22T13:15:47.851Z,9.98
2023-04-22T13:18:16.973Z,5.00
2023-04-22T13:20:44.420Z,8.18
2023-04-22T13:23:13.328Z,6.05
2023-04-22T13:25:41.051Z,9.57
2023-04-22T13:28:08.414Z,6.88
2023-04-22T13:30:36.475Z,10.40
2023-04-22T13:33:03.713Z,7.32
2023-04-22T13:35:31.639Z,7.18
2023-04-22T13:37:58.969Z,7.53
2023-04-22T13:40:27.488Z,8.00
2023-04-22T13:42:55.532Z,7.18
2023-04-22T13:45:22.761Z,5.95
2023-04-22T13:47:50.539Z,6.88
2023-04-22T13:50:17.935Z,7.70
2023-04-22T13:52:45.264Z,8.95
2023-04-22T13:55:12.589Z,7.20
2023-04-22T13:57:39.769Z,6.85
2023-04-22T14:00:08.601Z,7.68
2023-04-22T14:02:43.166Z,6.55
2023-04-22T14:05:10.963Z,8.43
2023-04-22T14:07:38.013Z,6.80
2023-04-22T14:10:07.970Z,9.05
2023-04-22T14:12:35.532Z,5.68
2023-04-22T14:15:02.716Z,6.95
2023-04-22T14:17:29.947Z,11.40
2023-04-22T14:19:57.512Z,9.20
2023-04-22T14:22:24.728Z,6.40
2023-04-22T14:24:52.240Z,6.07
2023-04-22T14:27:19.808Z,6.28
2023-04-22T14:29:47.329Z,9.13
2023-04-22T14:32:18.559Z,5.75
2023-04-22T14:34:46.515Z,7.68
2023-04-22T14:37:13.867Z,7.43
2023-04-22T14:39:41.339Z,6.50
2023-04-22T14:42:08.972Z,9.35
2023-04-22T14:44:36.240Z,6.38
2023-04-22T14:47:03.722Z,6.38
2023-04-22T14:49:33.210Z,6.18
2023-04-22T14:52:01.576Z,10.00
2023-04-22T14:54:28.642Z,4.93
2023-04-22T14:56:56.319Z,9.38
2023-04-22T14:59:23.517Z,6.30
2023-04-22T15:01:50.904Z,8.00
2023-04-22T15:04:19.536Z,7.88
2023-04-22T15:06:47.203Z,5.43
2023-04-22T15:09:14.517Z,5.82
2023-04-22T15:11:42.016Z,6.90
2023-04-22T15:14:09.210Z,6.97
2023-04-22T15:16:36.614Z,6.30
2023-04-22T15:19:03.813Z,6.55
2023-04-22T15:21:32.107Z,8.63
2023-04-22T15:23:59.391Z,8.02
2023-04-22T15:26:26.678Z,9.82
2023-04-22T15:28:53.965Z,8.70
2023-04-22T15:31:21.476Z,7.07
2023-04-22T15:33:48.834Z,9.80
2023-04-22T15:36:19.950Z,5.63
2023-04-22T15:38:47.560Z,8.82
2023-04-22T15:41:15.903Z,5.85
2023-04-22T15:43:43.934Z,7.47
2023-04-22T15:46:11.038Z,8.32
2023-04-22T15:48:38.325Z,5.47
2023-04-22T15:51:06.060Z,7.15
2023-04-22T15:53:33.253Z,8.20
2023-04-22T15:56:00.315Z,11.35
2023-04-22T15:58:29.012Z,8.88
2023-04-22T16:01:07.678Z,7.05
2023-04-22T16:03:45.165Z,9.55
2023-04-22T16:06:12.776Z,6.55
2023-04-22T16:08:40.107Z,5.90
2023-04-22T16:11:07.436Z,5.38
2023-04-22T16:13:34.755Z,8.85
2023-04-22T16:16:01.948Z,7.78
2023-04-22T16:18:29.318Z,8.77
2023-04-22T16:20:56.904Z,5.85
2023-04-22T16:23:24.101Z,8.13
2023-04-22T16:25:51.153Z,5.72
2023-04-22T16:28:18.529Z,8.27
2023-04-22T16:30:45.706Z,6.82
2023-04-22T16:33:14.448Z,5.97
2023-04-22T16:35:41.661Z,7.70
2023-04-22T16:38:10.132Z,8.13
2023-04-22T16:40:39.821Z,5.70
2023-04-22T16:43:07.479Z,7.55
2023-04-22T16:45:34.686Z,7.15
2023-04-22T16:48:02.025Z,9.30
2023-04-22T16:50:29.375Z,7.45
2023-04-22T16:52:56.843Z,8.95
2023-04-22T16:55:24.055Z,9.27
2023-04-22T16:57:51.335Z,5.15
2023-04-22T17:00:18.920Z,8.07
2023-04-22T17:02:46.138Z,7.28
2023-04-22T17:05:13.441Z,9.35
2023-04-22T17:07:41.052Z,7.38
2023-04-22T17:10:08.824Z,7.45
2023-04-22T17:12:36.059Z,7.35
2023-04-22T17:15:04.215Z,6.63
2023-04-22T17:17:31.391Z,8.77
2023-04-22T17:19:58.721Z,10.90
2023-04-22T17:22:26.283Z,8.88
2023-04-22T17:24:53.474Z,13.07
2023-04-22T17:27:21.362Z,10.45
2023-04-22T17:29:48.817Z,7.90
2023-04-22T17:32:16.309Z,9.38
2023-04-22T17:34:43.471Z,8.88
2023-04-22T17:37:10.968Z,9.55
2023-04-22T17:39:40.228Z,11.07
2023-04-22T17:42:07.724Z,9.80
2023-04-22T17:44:35.034Z,11.02
2023-04-22T17:47:02.777Z,12.10
2023-04-22T17:49:31.390Z,9.80
2023-04-22T17:51:58.554Z,11.57
2023-04-22T17:54:26.035Z,11.63
2023-04-22T17:56:53.215Z,10.00
2023-04-22T17:59:20.652Z,13.43
2023-04-22T18:01:47.778Z,10.57
2023-04-22T18:04:15.026Z,9.55
2023-04-22T18:06:42.219Z,7.82
2023-04-22T18:09:09.593Z,7.57
2023-04-22T18:11:37.113Z,10.95
2023-04-22T18:14:04.434Z,12.65
2023-04-22T18:16:32.470Z,10.00
2023-04-22T18:19:02.481Z,7.28
2023-04-22T18:21:29.912Z,12.35
2023-04-22T18:23:57.129Z,11.85
2023-04-22T18:26:24.516Z,12.48
2023-04-22T18:28:51.644Z,10.07
2023-04-22T18:31:18.768Z,10.57
2023-04-22T18:33:46.138Z,9.07
2023-04-22T18:36:13.337Z,10.85
2023-04-22T18:38:41.926Z,8.63
2023-04-22T18:41:11.229Z,9.18
2023-04-22T18:43:38.280Z,11.05
2023-04-22T18:46:05.536Z,14.90
2023-04-22T18:48:32.702Z,11.65
2023-04-22T18:51:00.568Z,13.23
2023-04-22T18:53:27.892Z,13.07
2023-04-22T18:55:55.326Z,12.20
2023-04-22T18:58:23.488Z,12.02
2023-04-22T19:00:51.035Z,11.60
2023-04-22T19:03:19.679Z,11.25
2023-04-22T19:05:47.209Z,14.25
2023-04-22T19:08:14.348Z,8.55
2023-04-22T19:10:41.630Z,7.90
2023-04-22T19:13:15.847Z,11.32
2023-04-22T19:15:50.573Z,11.27
2023-04-22T19:18:18.215Z,10.75
2023-04-22T19:20:46.499Z,8.77
2023-04-22T19:23:14.051Z,11.10
2023-04-22T19:25:41.799Z,8.80
2023-04-22T19:28:08.957Z,10.38
2023-04-22T19:30:36.642Z,7.22
2023-04-22T19:33:04.042Z,10.63
2023-04-22T19:35:32.135Z,9.98
2023-04-22T19:38:01.111Z,10.38
2023-04-22T19:40:29.678Z,10.30
2023-04-22T19:42:59.075Z,11.00
2023-04-22T19:45:27.391Z,12.63
2023-04-22T19:47:54.728Z,10.23
2023-04-22T19:50:22.672Z,11.27
2023-04-22T19:52:51.106Z,11.07
2023-04-22T19:55:19.710Z,15.30
2023-04-22T19:57:47.472Z,13.63
2023-04-22T20:00:15.048Z,11.32
2023-04-22T20:02:43.036Z,9.98
2023-04-22T20:05:11.132Z,12.80
2023-04-22T20:07:39.817Z,14.90
2023-04-22T20:10:09.904Z,11.25
2023-04-22T20:12:38.379Z,12.10
2023-04-22T20:15:06.623Z,12.38
2023-04-22T20:17:38.529Z,12.95
2023-04-22T20:20:08.325Z,9.77
2023-04-22T20:22:36.392Z,12.43
2023-04-22T20:25:07.879Z,12.98
2023-04-22T20:27:35.736Z,12.93
2023-04-22T20:30:03.904Z,16.45
2023-04-22T20:32:31.662Z,15.20
2023-04-22T20:34:59.397Z,11.65
2023-04-22T20:37:28.653Z,12.68
2023-04-22T20:39:57.472Z,10.52
2023-04-22T20:42:25.728Z,13.68
2023-04-22T20:44:53.114Z,15.70
2023-04-22T20:47:20.874Z,16.05
2023-04-22T20:49:48.061Z,12.23
2023-04-22T20:52:15.202Z,14.93
2023-04-22T20:54:43.480Z,10.90
2023-04-22T20:57:11.023Z,14.10
2023-04-22T20:59:38.145Z,12.40
2023-04-22T21:02:06.687Z,11.38
2023-04-22T21:04:34.932Z,13.07
2023-04-22T21:07:05.297Z,12.25
2023-04-22T21:09:33.011Z,13.27
2023-04-22T21:12:01.037Z,10.32
2023-04-22T21:14:28.463Z,13.27
2023-04-22T21:17:03.023Z,12.85
2023-04-22T21:22:06.215Z,11.60
2023-04-22T21:24:35.166Z,13.30
2023-04-22T21:27:03.083Z,10.43
2023-04-22T21:29:30.631Z,14.45
2023-04-22T21:32:07.232Z,15.30
2023-04-22T21:34:36.205Z,13.85
2023-04-22T21:37:04.581Z,10.25
2023-04-22T21:39:31.892Z,12.80
2023-04-22T21:41:59.103Z,14.15
2023-04-22T21:44:26.336Z,12.88
2023-04-22T21:46:53.412Z,13.32
2023-04-22T21:49:20.808Z,12.00
2023-04-22T21:51:48.404Z,14.90
2023-04-22T21:54:15.749Z,14.68
2023-04-22T21:56:42.960Z,15.73
2023-04-22T21:59:10.005Z,15.82
2023-04-22T22:01:37.088Z,16.55
2023-04-22T22:04:04.484Z,13.45
2023-04-22T22:06:33.301Z,15.10
2023-04-22T22:09:00.473Z,15.98
2023-04-22T22:11:31.368Z,13.02
2023-04-22T22:13:59.208Z,13.07
2023-04-22T22:16:26.438Z,16.73
2023-04-22T22:18:53.628Z,13.43
2023-04-22T22:21:20.753Z,14.77
2023-04-22T22:23:47.972Z,17.55
2023-04-22T22:26:15.100Z,16.23
2023-04-22T22:28:42.136Z,14.27
2023-04-22T22:31:09.257Z,18.27
2023-04-22T22:33:36.277Z,16.10
2023-04-22T22:36:03.527Z,16.90
2023-04-22T22:38:30.666Z,17.98
2023-04-22T22:40:57.729Z,14.02
2023-04-22T22:43:24.824Z,14.88
2023-04-22T22:45:52.048Z,17.98
2023-04-22T22:48:19.568Z,14.43
2023-04-22T22:50:46.762Z,14.75
2023-04-22T22:53:13.908Z,18.35
2023-04-22T22:55:41.026Z,15.07
2023-04-22T22:58:08.154Z,22.58
2023-04-22T23:00:35.339Z,16.95
2023-04-22T23:03:02.911Z,20.52
2023-04-22T23:05:30.547Z,21.52
2023-04-22T23:07:57.570Z,16.20
2023-04-22T23:10:24.745Z,18.67
2023-04-22T23:12:51.786Z,18.35
2023-04-22T23:15:18.962Z,18.02
2023-04-22T23:17:46.367Z,19.95
2023-04-22T23:20:14.189Z,15.45
2023-04-22T23:22:42.905Z,14.68
2023-04-22T23:25:10.756Z,20.10
2023-04-22T23:27:38.113Z,17.98
2023-04-22T23:30:05.929Z,17.42
2023-04-22T23:32:35.469Z,15.52
2023-04-22T23:35:03.984Z,16.13
2023-04-22T23:37:31.659Z,18.00
2023-04-22T23:39:58.835Z,16.65
2023-04-22T23:42:26.117Z,17.55
2023-04-22T23:44:53.243Z,16.92
2023-04-22T23:47:20.441Z,16.10
2023-04-22T23:49:47.823Z,15.57
2023-04-22T23:52:14.871Z,16.52
2023-04-22T23:54:42.459Z,18.45
2023-04-22T23:57:09.956Z,16.25
2023-04-22T23:59:37.453Z,14.88
